createdAt,value
2022-11-21T00:01:00.801Z,0.20
2022-11-21T00:03:27.706Z,0.20
2022-11-21T00:05:54.571Z,0.10
2022-11-21T00:08:22.613Z,0.10
2022-11-21T00:10:49.707Z,0.10
2022-11-21T00:13:20.555Z,0.10
2022-11-21T00:15:48.277Z,0.10
2022-11-21T00:18:15.695Z,0.20
2022-11-21T00:20:44.765Z,0.10
2022-11-21T00:23:12.061Z,0.20
2022-11-21T00:25:39.334Z,0.20
2022-11-21T00:28:06.449Z,0.20
2022-11-21T00:30:33.535Z,0.20
2022-11-21T00:33:00.609Z,0.10
2022-11-21T00:35:27.871Z,0.10
2022-11-21T00:37:54.850Z,0.10
2022-11-21T00:40:21.747Z,0.10
2022-11-21T00:42:48.597Z,0.10
2022-11-21T00:45:19.635Z,0.10
2022-11-21T00:47:49.727Z,0.00
2022-11-21T00:50:16.610Z,0.00
2022-11-21T00:52:43.420Z,0.00
2022-11-21T00:55:10.477Z,-0.10
2022-11-21T00:57:37.398Z,-0.10
2022-11-21T01:00:05.551Z,-0.10
2022-11-21T01:02:32.848Z,-0.10
2022-11-21T01:04:59.772Z,-0.10
2022-11-21T01:07:26.757Z,-0.20
2022-11-21T01:09:53.697Z,-0.20
2022-11-21T01:12:20.581Z,-0.10
2022-11-21T01:14:47.482Z,0.00
2022-11-21T01:17:14.530Z,0.00
2022-11-21T01:19:41.412Z,0.10
2022-11-21T01:22:08.663Z,0.10
2022-11-21T01:24:35.502Z,0.10
2022-11-21T01:27:02.427Z,0.20
2022-11-21T01:29:29.313Z,0.20
2022-11-21T01:31:56.273Z,0.30
2022-11-21T01:34:23.193Z,0.30
2022-11-21T01:36:50.012Z,0.30
2022-11-21T01:39:16.908Z,0.40
2022-11-21T01:41:45.343Z,0.40
2022-11-21T01:44:24.483Z,0.30
2022-11-21T01:46:52.434Z,0.30
2022-11-21T01:49:29.265Z,0.20
2022-11-21T01:52:13.362Z,0.20
2022-11-21T01:54:52.578Z,0.20
2022-11-21T01:57:28.852Z,0.10
2022-11-21T02:00:23.956Z,0.10
2022-11-21T02:02:57.745Z,0.10
2022-11-21T02:05:29.349Z,0.20
2022-11-21T02:08:02.306Z,0.10
2022-11-21T02:10:29.349Z,0.10
2022-11-21T02:12:58.780Z,0.10
2022-11-21T02:15:29.286Z,0.10
2022-11-21T02:17:56.449Z,0.10
2022-11-21T02:20:25.606Z,0.00
2022-11-21T02:23:25.861Z,0.00
2022-11-21T02:25:54.107Z,0.00
2022-11-21T02:28:27.027Z,0.00
2022-11-21T02:30:53.897Z,0.00
2022-11-21T02:33:20.781Z,0.00
2022-11-21T02:35:58.415Z,0.00
2022-11-21T02:38:35.277Z,0.00
2022-11-21T02:41:26.729Z,-0.10
2022-11-21T02:43:59.428Z,-0.10
2022-11-21T02:46:28.402Z,-0.20
2022-11-21T02:48:56.704Z,-0.20
2022-11-21T02:51:23.613Z,-0.20
2022-11-21T02:53:50.434Z,-0.20
2022-11-21T02:56:17.507Z,-0.20
2022-11-21T02:58:44.815Z,-0.30
2022-11-21T03:01:11.706Z,-0.40
2022-11-21T03:03:38.620Z,-0.50
2022-11-21T03:06:09.571Z,-0.60
2022-11-21T03:08:36.391Z,-0.70
2022-11-21T03:11:03.284Z,-0.80
2022-11-21T03:13:30.079Z,-0.80
2022-11-21T03:15:57.203Z,-0.90
2022-11-21T03:18:24.056Z,-1.00
2022-11-21T03:20:50.975Z,-1.10
2022-11-21T03:23:17.854Z,-1.10
2022-11-21T03:25:44.721Z,-1.10
2022-11-21T03:28:11.596Z,-1.10
2022-11-21T03:30:38.482Z,-1.10
2022-11-21T03:33:05.351Z,-1.10
2022-11-21T03:35:32.206Z,-1.10
2022-11-21T03:37:59.115Z,-1.10
2022-11-21T03:40:25.961Z,-1.10
2022-11-21T03:42:52.818Z,-1.20
2022-11-21T03:45:20.318Z,-1.30
2022-11-21T03:47:47.352Z,-1.30
2022-11-21T03:50:18.513Z,-1.40
2022-11-21T03:52:45.433Z,-1.40
2022-11-21T03:55:12.232Z,-1.30
2022-11-21T03:57:39.608Z,-1.20
2022-11-21T04:00:07.052Z,-1.20
2022-11-21T04:02:33.846Z,-1.10
2022-11-21T04:05:00.669Z,-1.10
2022-11-21T04:07:27.544Z,-1.20
2022-11-21T04:09:54.537Z,-1.20
2022-11-21T04:12:21.373Z,-1.20
2022-11-21T04:14:48.228Z,-1.20
2022-11-21T04:17:15.059Z,-1.30
2022-11-21T04:19:41.939Z,-1.40
2022-11-21T04:22:08.721Z,-1.30
2022-11-21T04:24:35.561Z,-1.40
2022-11-21T04:27:02.430Z,-1.50
2022-11-21T04:29:29.280Z,-1.50
2022-11-21T04:31:56.182Z,-1.50
2022-11-21T04:34:23.104Z,-1.50
2022-11-21T04:36:49.940Z,-1.50
2022-11-21T04:39:16.826Z,-1.50
2022-11-21T04:41:43.696Z,-1.60
2022-11-21T04:44:10.531Z,-1.60
2022-11-21T04:46:37.336Z,-1.70
2022-11-21T04:49:04.290Z,-1.80
2022-11-21T04:51:31.146Z,-1.90
2022-11-21T04:53:58.067Z,-1.80
2022-11-21T04:56:24.918Z,-1.90
2022-11-21T04:58:53.328Z,-1.80
2022-11-21T05:01:20.254Z,-1.90
2022-11-21T05:03:47.329Z,-2.00
2022-11-21T05:06:14.258Z,-2.10
2022-11-21T05:08:41.070Z,-2.10
2022-11-21T05:11:26.494Z,-2.10
2022-11-21T05:13:54.699Z,-2.10
2022-11-21T05:16:21.543Z,-2.10
2022-11-21T05:18:48.399Z,-2.20
2022-11-21T05:21:15.364Z,-2.20
2022-11-21T05:23:42.274Z,-2.20
2022-11-21T05:26:09.148Z,-2.20
2022-11-21T05:28:36.000Z,-2.30
2022-11-21T05:31:02.944Z,-2.30
2022-11-21T05:33:29.829Z,-2.40
2022-11-21T05:35:56.761Z,-2.40
2022-11-21T05:38:23.614Z,-2.40
2022-11-21T05:40:53.136Z,-2.50
2022-11-21T05:43:38.537Z,-2.50
2022-11-21T05:46:05.438Z,-2.50
2022-11-21T05:48:34.202Z,-2.50
2022-11-21T05:51:01.105Z,-2.60
2022-11-21T05:53:27.947Z,-2.60
2022-11-21T05:55:54.785Z,-2.70
2022-11-21T05:58:21.685Z,-2.70
2022-11-21T06:00:48.513Z,-2.80
2022-11-21T06:03:27.376Z,-2.80
2022-11-21T06:06:09.040Z,-2.80
2022-11-21T06:08:41.414Z,-2.90
2022-11-21T06:11:09.990Z,-2.90
2022-11-21T06:13:37.163Z,-2.90
2022-11-21T06:16:15.750Z,-2.90
2022-11-21T06:18:47.963Z,-3.00
2022-11-21T06:21:17.493Z,-3.00
2022-11-21T06:23:45.126Z,-3.10
2022-11-21T06:26:17.522Z,-3.00
2022-11-21T06:28:45.600Z,-3.00
2022-11-21T06:31:13.884Z,-3.10
2022-11-21T06:33:41.616Z,-3.20
2022-11-21T06:36:11.067Z,-3.20
2022-11-21T06:38:38.377Z,-3.20
2022-11-21T06:41:14.233Z,-3.20
2022-11-21T06:43:42.070Z,-3.20
2022-11-21T06:46:09.823Z,-3.30
2022-11-21T06:48:37.819Z,-3.30
2022-11-21T06:51:06.775Z,-3.40
2022-11-21T06:53:34.949Z,-3.40
2022-11-21T06:56:02.778Z,-3.40
2022-11-21T06:58:30.220Z,-3.40
2022-11-21T07:00:57.221Z,-3.40
2022-11-21T07:03:24.293Z,-3.40
2022-11-21T07:05:52.251Z,-3.30
2022-11-21T07:08:19.159Z,-3.30
2022-11-21T07:11:10.218Z,-3.30
2022-11-21T07:13:33.146Z,-3.30
2022-11-21T07:16:05.406Z,-3.30
2022-11-21T07:18:32.928Z,-3.30
2022-11-21T07:21:05.122Z,-3.20
2022-11-21T07:23:32.986Z,-3.30
2022-11-21T07:26:01.851Z,-3.30
2022-11-21T07:28:30.059Z,-3.30
2022-11-21T07:30:57.863Z,-3.20
2022-11-21T07:33:25.253Z,-3.20
2022-11-21T07:35:52.684Z,-3.20
2022-11-21T07:38:19.917Z,-3.10
2022-11-21T07:40:46.776Z,-3.00
2022-11-21T07:43:13.726Z,-2.90
2022-11-21T07:45:40.615Z,-2.50
2022-11-21T07:48:08.527Z,-2.40
2022-11-21T07:50:35.758Z,-2.30
2022-11-21T07:53:05.746Z,-2.20
2022-11-21T07:55:36.428Z,-2.00
2022-11-21T07:58:10.370Z,-1.90
2022-11-21T08:00:40.070Z,-1.90
2022-11-21T08:03:07.413Z,-1.90
2022-11-21T08:05:42.199Z,-2.00
2022-11-21T08:08:10.247Z,-1.90
2022-11-21T08:10:39.197Z,-1.70
2022-11-21T08:13:06.532Z,-1.60
2022-11-21T08:15:33.723Z,-1.60
2022-11-21T08:18:08.670Z,-1.60
2022-11-21T08:20:35.840Z,-1.50
2022-11-21T08:23:03.028Z,-1.30
2022-11-21T08:25:30.519Z,-1.30
2022-11-21T08:27:58.596Z,-1.20
2022-11-21T08:30:25.942Z,-1.20
2022-11-21T08:32:52.837Z,-1.30
2022-11-21T08:35:19.879Z,-1.30
2022-11-21T08:37:46.773Z,-1.40
2022-11-21T08:40:13.701Z,-1.40
2022-11-21T08:42:40.589Z,-1.30
2022-11-21T08:45:07.958Z,-1.20
2022-11-21T08:47:34.846Z,-1.10
2022-11-21T08:50:07.423Z,-1.00
2022-11-21T08:52:35.686Z,-0.80
2022-11-21T08:55:02.553Z,-0.70
2022-11-21T08:57:31.468Z,-0.50
2022-11-21T08:59:58.343Z,-0.40
2022-11-21T09:02:25.242Z,-0.20
2022-11-21T09:04:53.477Z,-0.20
2022-11-21T09:07:20.507Z,-0.10
2022-11-21T09:09:47.482Z,0.10
2022-11-21T09:12:14.358Z,0.20
2022-11-21T09:14:59.663Z,0.20
2022-11-21T09:17:45.277Z,0.20
2022-11-21T09:20:12.351Z,0.20
2022-11-21T09:22:39.267Z,0.30
2022-11-21T09:25:06.294Z,0.30
2022-11-21T09:27:33.257Z,0.30
2022-11-21T09:30:00.079Z,0.40
2022-11-21T09:32:27.055Z,0.40
2022-11-21T09:34:53.940Z,0.40
2022-11-21T09:37:20.856Z,0.30
2022-11-21T09:39:49.062Z,0.50
2022-11-21T09:42:38.088Z,0.50
2022-11-21T09:45:19.478Z,0.50
2022-11-21T09:47:49.415Z,0.50
2022-11-21T09:50:16.252Z,0.50
2022-11-21T09:53:11.236Z,0.40
2022-11-21T09:55:55.783Z,0.40
2022-11-21T09:58:37.483Z,0.40
2022-11-21T10:01:04.521Z,0.50
2022-11-21T10:03:48.990Z,0.60
2022-11-21T10:06:21.521Z,0.90
2022-11-21T10:09:07.316Z,1.10
2022-11-21T10:12:10.905Z,1.20
2022-11-21T10:14:43.494Z,1.10
2022-11-21T10:17:20.058Z,1.70
2022-11-21T10:20:10.679Z,2.00
2022-11-21T10:23:05.026Z,2.10
2022-11-21T10:25:39.119Z,2.70
2022-11-21T10:28:20.513Z,2.90
2022-11-21T10:30:50.460Z,3.20
2022-11-21T10:33:34.242Z,3.50
2022-11-21T10:36:22.165Z,3.90
2022-11-21T10:38:50.299Z,4.40
2022-11-21T10:41:23.923Z,4.40
2022-11-21T10:44:28.449Z,4.70
2022-11-21T10:46:59.963Z,4.90
2022-11-21T10:49:30.365Z,4.30
2022-11-21T10:52:16.197Z,4.20
2022-11-21T10:55:18.872Z,3.90
2022-11-21T10:57:50.431Z,4.20
2022-11-21T11:00:20.284Z,4.20
2022-11-21T11:02:56.022Z,4.10
2022-11-21T11:05:24.986Z,4.00
2022-11-21T11:08:05.961Z,3.70
2022-11-21T11:10:44.066Z,4.10
2022-11-21T11:13:50.144Z,4.70
2022-11-21T11:16:21.372Z,4.90
2022-11-21T11:19:03.194Z,5.40
2022-11-21T11:21:42.004Z,5.30
2022-11-21T11:24:11.624Z,5.10
2022-11-21T11:26:48.533Z,4.80
2022-11-21T11:29:25.110Z,4.50
2022-11-21T11:31:57.101Z,4.20
2022-11-21T11:34:27.294Z,4.10
2022-11-21T11:36:58.975Z,4.40
2022-11-21T11:39:39.783Z,4.60
2022-11-21T11:42:52.717Z,4.70
2022-11-21T11:45:49.969Z,5.10
2022-11-21T11:48:19.787Z,5.20
2022-11-21T11:50:48.687Z,4.70
2022-11-21T11:53:38.849Z,4.60
2022-11-21T11:56:15.436Z,4.60
2022-11-21T11:58:57.709Z,4.70
2022-11-21T12:01:39.348Z,5.30
2022-11-21T12:04:19.026Z,5.70
2022-11-21T12:10:03.518Z,6.00
2022-11-21T12:12:39.345Z,5.80
2022-11-21T12:15:49.330Z,6.20
2022-11-21T12:18:23.536Z,6.40
2022-11-21T12:21:13.117Z,6.40
2022-11-21T12:23:48.666Z,6.60
2022-11-21T12:26:37.451Z,6.50
2022-11-21T12:29:07.223Z,6.90
2022-11-21T12:32:02.314Z,7.10
2022-11-21T12:34:47.240Z,6.60
2022-11-21T12:37:30.609Z,6.60
2022-11-21T12:40:41.885Z,6.70
2022-11-21T12:43:40.881Z,6.10
2022-11-21T12:47:02.708Z,6.20
2022-11-21T12:50:12.578Z,6.40
2022-11-21T12:53:08.867Z,6.70
2022-11-21T12:55:42.435Z,6.80
2022-11-21T12:58:09.260Z,6.20
2022-11-21T13:01:10.102Z,6.10
2022-11-21T13:04:17.634Z,5.70
2022-11-21T13:06:48.963Z,5.40
2022-11-21T13:09:20.492Z,5.00
2022-11-21T13:12:06.200Z,5.00
2022-11-21T13:14:54.317Z,4.90
2022-11-21T13:17:40.527Z,4.50
2022-11-21T13:20:20.364Z,4.40
2022-11-21T13:22:47.368Z,4.20
2022-11-21T13:25:41.042Z,4.20
2022-11-21T13:28:13.594Z,4.50
2022-11-21T13:30:50.560Z,4.40
2022-11-21T13:33:35.921Z,4.50
2022-11-21T13:36:06.343Z,4.70
2022-11-21T13:38:53.747Z,4.80
2022-11-21T13:42:20.512Z,5.20
2022-11-21T13:44:48.968Z,5.10
2022-11-21T13:48:02.889Z,5.20
2022-11-21T13:50:53.853Z,5.10
2022-11-21T13:53:31.063Z,5.60
2022-11-21T13:56:04.615Z,5.00
2022-11-21T13:59:12.926Z,4.80
2022-11-21T14:01:51.271Z,4.20
2022-11-21T14:04:25.526Z,3.90
2022-11-21T14:06:52.374Z,3.40
2022-11-21T14:09:21.409Z,3.30
2022-11-21T14:11:54.014Z,3.30
2022-11-21T14:14:35.935Z,3.20
2022-11-21T14:17:17.832Z,3.20
2022-11-21T14:19:44.922Z,3.20
2022-11-21T14:22:35.159Z,3.20
2022-11-21T14:25:13.879Z,3.10
2022-11-21T14:27:45.648Z,3.10
2022-11-21T14:30:45.198Z,3.00
2022-11-21T14:33:27.547Z,2.90
2022-11-21T14:36:07.327Z,2.90
2022-11-21T14:38:43.524Z,2.80
2022-11-21T14:41:25.161Z,2.70
2022-11-21T14:44:02.153Z,2.70
2022-11-21T14:46:33.622Z,2.70
2022-11-21T14:49:15.763Z,2.80
2022-11-21T14:51:45.146Z,2.70
2022-11-21T14:54:21.637Z,2.60
2022-11-21T14:56:55.134Z,2.60
2022-11-21T14:59:28.811Z,2.50
2022-11-21T15:02:11.319Z,2.50
2022-11-21T15:04:38.347Z,2.50
2022-11-21T15:07:05.304Z,2.50
2022-11-21T15:12:34.870Z,2.50
2022-11-21T15:15:15.414Z,2.40
2022-11-21T15:18:10.216Z,2.30
2022-11-21T15:20:30.932Z,2.30
2022-11-21T15:23:00.506Z,2.10
2022-11-21T15:25:43.912Z,2.10
2022-11-21T15:28:16.252Z,2.10
2022-11-21T15:30:43.606Z,2.10
2022-11-21T15:33:16.174Z,2.00
2022-11-21T15:35:48.773Z,2.00
2022-11-21T15:38:20.329Z,2.00
2022-11-21T15:41:01.610Z,2.00
2022-11-21T15:43:48.337Z,2.00
2022-11-21T15:46:21.330Z,2.00
2022-11-21T15:48:50.172Z,2.00
2022-11-21T15:54:07.775Z,1.90
2022-11-21T15:56:34.828Z,1.90
2022-11-21T15:57:14.448Z,1.90
2022-11-21T15:59:02.668Z,2.00
2022-11-21T16:01:30.670Z,1.90
2022-11-21T16:04:03.180Z,1.70
2022-11-21T16:06:30.991Z,1.70
2022-11-21T16:08:58.598Z,1.70
2022-11-21T16:11:26.951Z,1.60
2022-11-21T16:13:55.974Z,1.60
2022-11-21T16:16:24.482Z,1.50
2022-11-21T16:18:51.512Z,1.40
2022-11-21T16:21:18.619Z,1.30
2022-11-21T16:23:45.634Z,1.00
2022-11-21T16:26:13.313Z,0.90
2022-11-21T16:28:40.535Z,1.10
2022-11-21T16:31:08.000Z,1.00
2022-11-21T16:33:35.930Z,1.00
2022-11-21T16:36:02.937Z,0.90
2022-11-21T16:38:30.316Z,0.90
2022-11-21T16:41:00.122Z,0.70
2022-11-21T16:43:28.521Z,0.60
2022-11-21T16:45:55.735Z,0.40
2022-11-21T16:48:23.723Z,0.40
2022-11-21T16:50:50.537Z,0.40
2022-11-21T16:53:17.461Z,0.40
2022-11-21T16:55:44.338Z,0.30
2022-11-21T16:58:11.210Z,0.30
2022-11-21T17:00:39.178Z,0.30
2022-11-21T17:03:06.103Z,0.40
2022-11-21T17:05:33.005Z,0.40
2022-11-21T17:07:59.940Z,0.30
2022-11-21T17:10:32.577Z,0.30
2022-11-21T17:13:00.753Z,0.40
2022-11-21T17:15:27.659Z,0.50
2022-11-21T17:17:54.656Z,0.50
2022-11-21T17:20:21.510Z,0.50
2022-11-21T17:22:48.413Z,0.40
2022-11-21T17:25:15.325Z,0.30
2022-11-21T17:27:42.207Z,0.30
2022-11-21T17:30:09.518Z,0.30
2022-11-21T17:32:36.440Z,0.40
2022-11-21T17:35:03.674Z,0.40
2022-11-21T17:37:30.558Z,0.40
2022-11-21T17:39:57.553Z,0.40
2022-11-21T17:42:26.843Z,0.40
2022-11-21T17:44:53.818Z,0.30
2022-11-21T17:47:20.709Z,0.30
2022-11-21T17:49:47.999Z,0.20
2022-11-21T17:52:14.910Z,0.00
2022-11-21T17:54:41.838Z,-0.10
2022-11-21T17:57:08.692Z,-0.10
2022-11-21T17:59:38.484Z,-0.10
2022-11-21T18:02:05.490Z,0.20
2022-11-21T18:04:34.425Z,0.30
2022-11-21T18:07:02.125Z,0.60
2022-11-21T18:09:29.124Z,1.00
2022-11-21T18:11:57.751Z,1.10
2022-11-21T18:14:24.921Z,1.20
2022-11-21T18:16:55.715Z,1.30
2022-11-21T18:19:22.775Z,1.40
2022-11-21T18:21:49.958Z,1.40
2022-11-21T18:24:16.808Z,1.50
2022-11-21T18:26:43.660Z,1.50
2022-11-21T18:29:35.200Z,1.50
2022-11-21T18:31:57.403Z,1.50
2022-11-21T18:34:24.261Z,1.50
2022-11-21T18:36:51.091Z,1.40
2022-11-21T18:39:17.843Z,1.40
2022-11-21T18:41:44.696Z,1.40
2022-11-21T18:44:15.821Z,1.60
2022-11-21T18:46:45.477Z,1.80
2022-11-21T18:49:12.264Z,1.80
2022-11-21T18:51:39.096Z,1.90
2022-11-21T18:54:08.405Z,2.00
2022-11-21T18:56:36.306Z,2.00
2022-11-21T18:59:05.748Z,2.00
2022-11-21T19:01:33.340Z,2.00
2022-11-21T19:04:00.275Z,2.10
2022-11-21T19:06:27.541Z,2.20
2022-11-21T19:08:55.411Z,2.20
2022-11-21T19:11:24.406Z,2.20
2022-11-21T19:13:51.892Z,2.20
2022-11-21T19:16:19.919Z,2.20
2022-11-21T19:19:05.450Z,2.20
2022-11-21T19:21:37.887Z,2.30
2022-11-21T19:24:06.706Z,2.30
2022-11-21T19:26:33.605Z,2.30
2022-11-21T19:29:00.442Z,2.30
2022-11-21T19:31:27.251Z,2.30
2022-11-21T19:33:54.313Z,2.20
2022-11-21T19:36:22.237Z,2.20
2022-11-21T19:38:51.093Z,2.10
2022-11-21T19:41:22.201Z,2.10
2022-11-21T19:43:49.933Z,2.00
2022-11-21T19:46:21.009Z,2.00
2022-11-21T19:48:48.662Z,2.10
2022-11-21T19:51:15.893Z,2.10
2022-11-21T19:53:42.843Z,2.20
2022-11-21T19:56:16.888Z,2.20
2022-11-21T19:58:44.247Z,2.20
2022-11-21T20:01:15.504Z,2.30
2022-11-21T20:03:43.569Z,2.40
2022-11-21T20:06:18.042Z,2.30
2022-11-21T20:08:48.004Z,2.40
2022-11-21T20:11:15.607Z,2.50
2022-11-21T20:13:45.785Z,2.70
2022-11-21T20:16:32.219Z,2.80
2022-11-21T20:19:06.564Z,2.80
2022-11-21T20:21:33.713Z,2.70
2022-11-21T20:24:00.691Z,2.80
2022-11-21T20:26:27.622Z,2.90
2022-11-21T20:28:54.561Z,3.00
2022-11-21T20:31:29.014Z,2.90
2022-11-21T20:33:58.216Z,2.90
2022-11-21T20:36:25.767Z,2.90
2022-11-21T20:38:53.941Z,2.90
2022-11-21T20:41:21.165Z,2.90
2022-11-21T20:44:44.643Z,2.90
2022-11-21T20:46:34.858Z,2.80
2022-11-21T20:49:01.733Z,2.90
2022-11-21T20:53:01.007Z,2.90
2022-11-21T20:54:15.372Z,2.90
2022-11-21T20:56:44.362Z,2.90
2022-11-21T20:59:11.856Z,2.80
2022-11-21T21:01:38.697Z,2.90
2022-11-21T21:04:05.501Z,2.80
2022-11-21T21:06:32.320Z,2.80
2022-11-21T21:08:59.126Z,2.90
2022-11-21T21:11:50.432Z,2.90
2022-11-21T21:14:12.747Z,2.90
2022-11-21T21:16:39.554Z,2.90
2022-11-21T21:19:06.304Z,3.00
2022-11-21T21:21:33.090Z,3.00
2022-11-21T21:24:04.135Z,3.00
2022-11-21T21:26:35.741Z,3.10
2022-11-21T21:29:05.791Z,3.00
2022-11-21T21:31:32.559Z,3.00
2022-11-21T21:34:00.338Z,3.00
2022-11-21T21:36:27.577Z,3.00
2022-11-21T21:38:55.511Z,3.10
2022-11-21T21:41:22.903Z,3.00
2022-11-21T21:43:50.294Z,3.10
2022-11-21T21:46:18.172Z,3.20
2022-11-21T21:48:45.192Z,3.20
2022-11-21T21:51:15.275Z,3.30
2022-11-21T21:53:42.851Z,3.30
2022-11-21T21:56:10.325Z,3.30
2022-11-21T21:58:38.032Z,3.30
2022-11-21T22:01:14.873Z,3.30
2022-11-21T22:03:42.429Z,3.40
2022-11-21T22:06:16.460Z,3.30
2022-11-21T22:08:43.833Z,3.30
2022-11-21T22:11:12.047Z,3.30
2022-11-21T22:13:39.519Z,3.40
2022-11-21T22:16:07.119Z,3.30
2022-11-21T22:18:34.241Z,3.40
2022-11-21T22:21:01.469Z,3.40
2022-11-21T22:23:29.111Z,3.40
2022-11-21T22:25:56.646Z,3.40
2022-11-21T22:28:24.183Z,3.40
2022-11-21T22:30:54.875Z,3.30
2022-11-21T22:33:21.667Z,3.20
2022-11-21T22:35:48.469Z,3.10
2022-11-21T22:38:15.987Z,3.10
2022-11-21T22:40:42.978Z,3.00
2022-11-21T22:43:09.958Z,2.80
2022-11-21T22:45:36.683Z,2.80
2022-11-21T22:48:03.849Z,2.70
2022-11-21T22:50:30.564Z,2.70
2022-11-21T22:52:57.334Z,2.60
2022-11-21T22:55:24.126Z,2.70
2022-11-21T22:57:50.881Z,2.70
2022-11-21T23:00:18.003Z,2.70
2022-11-21T23:02:44.766Z,2.70
2022-11-21T23:05:11.576Z,2.80
2022-11-21T23:07:38.868Z,2.80
2022-11-21T23:10:06.026Z,2.80
2022-11-21T23:12:32.810Z,2.80
2022-11-21T23:14:59.554Z,2.80
2022-11-21T23:17:26.373Z,2.80
2022-11-21T23:19:53.065Z,2.90
2022-11-21T23:22:19.865Z,2.90
2022-11-21T23:24:46.708Z,2.90
2022-11-21T23:27:13.453Z,2.90
2022-11-21T23:29:40.176Z,3.00
2022-11-21T23:32:07.600Z,3.10
2022-11-21T23:34:34.319Z,3.10
2022-11-21T23:37:01.124Z,3.00
2022-11-21T23:39:28.881Z,3.00
2022-11-21T23:41:55.971Z,3.00
2022-11-21T23:44:22.762Z,3.00
2022-11-21T23:46:49.726Z,3.10
2022-11-21T23:49:16.443Z,3.30
2022-11-21T23:51:43.179Z,3.40
2022-11-21T23:54:09.964Z,3.50
2022-11-21T23:56:36.681Z,3.50
2022-11-21T23:59:03.424Z,3.60
